Time;durP1;ratioP1;P1;durP2;ratioP2;P2;SDS_P1;SDS_P2;PMS_P1;PMS_P2;Temp;Humidity;BMP_temperature;BMP_pressure;BME280_temperature;BME280_humidity;BME280_pressure;Samples;Min_cycle;Max_cycle;Signal;HPM_P1;HPM_P2
2022/09/20 00:01:06;;;;;;;1.63;1.47;;;;;;;;;;5073624;28;20442;-72
2022/09/20 00:03:33;;;;;;;1.60;1.33;;;;;;;;;;5072794;28;20449;-74
2022/09/20 00:06:01;;;;;;;1.93;1.50;;;;;;;;;;5073457;28;20461;-73
2022/09/20 00:08:30;;;;;;;3.20;1.30;;;;;;;;;;5072172;28;20444;-73
2022/09/20 00:11:01;;;;;;;4.53;2.00;;;;;;;;;;5073524;28;20460;-73
2022/09/20 00:13:29;;;;;;;1.70;1.50;;;;;;;;;;5072114;28;20530;-73
2022/09/20 00:15:56;;;;;;;2.07;1.20;;;;;;;;;;5073651;28;20529;-72
2022/09/20 00:18:23;;;;;;;2.03;1.40;;;;;;;;;;5072080;28;20449;-73
2022/09/20 00:20:51;;;;;;;1.90;1.40;;;;;;;;;;5073462;28;20815;-73
2022/09/20 00:23:18;;;;;;;1.80;1.50;;;;;;;;;;5072138;28;20808;-73
2022/09/20 00:25:54;;;;;;;2.47;1.47;;;;;;;;;;5073134;28;20446;-73
2022/09/20 00:28:21;;;;;;;2.63;1.93;;;;;;;;;;5072190;28;20988;-73
2022/09/20 00:30:49;;;;;;;3.03;1.93;;;;;;;;;;5073426;28;20469;-73
2022/09/20 00:33:16;;;;;;;2.43;1.17;;;;;;;;;;5072745;28;20976;-74
2022/09/20 00:35:43;;;;;;;3.17;1.30;;;;;;;;;;5073096;28;20452;-73
2022/09/20 00:38:10;;;;;;;2.70;1.40;;;;;;;;;;5071839;28;20449;-74
2022/09/20 00:40:38;;;;;;;1.30;1.00;;;;;;;;;;5072312;28;20560;-73
2022/09/20 00:43:06;;;;;;;2.30;1.07;;;;;;;;;;5072514;28;20449;-74
2022/09/20 00:45:34;;;;;;;1.20;0.90;;;;;;;;;;5071409;28;20450;-73
2022/09/20 00:48:03;;;;;;;2.27;1.40;;;;;;;;;;5072494;28;20454;-73
2022/09/20 00:50:33;;;;;;;1.70;1.43;;;;;;;;;;5072276;28;20480;-73
2022/09/20 00:53:03;;;;;;;2.80;1.83;;;;;;;;;;5072298;28;20469;-74
2022/09/20 00:55:30;;;;;;;2.30;1.27;;;;;;;;;;5072086;28;20442;-73
2022/09/20 00:57:59;;;;;;;5.63;1.80;;;;;;;;;;5071994;28;20465;-73
2022/09/20 01:00:27;;;;;;;1.27;1.07;;;;;;;;;;5072245;28;20461;-73
2022/09/20 01:02:57;;;;;;;1.53;1.07;;;;;;;;;;5071923;28;20536;-73
2022/09/20 01:05:24;;;;;;;3.67;1.50;;;;;;;;;;5071439;28;20453;-73
2022/09/20 01:07:52;;;;;;;2.23;1.47;;;;;;;;;;5072164;28;20448;-73
2022/09/20 01:10:19;;;;;;;5.37;2.20;;;;;;;;;;5071467;28;20448;-73
2022/09/20 01:12:47;;;;;;;5.00;1.10;;;;;;;;;;5068084;28;20477;-72
2022/09/20 01:15:15;;;;;;;2.87;1.50;;;;;;;;;;5072433;28;20937;-72
2022/09/20 01:17:47;;;;;;;1.40;1.10;;;;;;;;;;5072393;28;20458;-73
2022/09/20 01:20:21;;;;;;;1.63;1.43;;;;;;;;;;5072704;28;20441;-73
2022/09/20 01:22:52;;;;;;;1.53;1.30;;;;;;;;;;5072412;28;20446;-73
2022/09/20 01:25:26;;;;;;;2.20;1.37;;;;;;;;;;5082744;28;20442;-73
2022/09/20 01:27:55;;;;;;;6.30;1.83;;;;;;;;;;5072177;28;20481;-73
2022/09/20 01:30:23;;;;;;;1.93;1.10;;;;;;;;;;5071749;28;20453;-72
2022/09/20 01:33:01;;;;;;;5.53;1.73;;;;;;;;;;5072344;28;20485;-73
2022/09/20 01:35:29;;;;;;;4.87;1.50;;;;;;;;;;5071512;28;20448;-73
2022/09/20 01:38:02;;;;;;;1.57;1.47;;;;;;;;;;5071528;28;20933;-73
2022/09/20 01:40:35;;;;;;;2.63;1.73;;;;;;;;;;5071534;28;20498;-74
2022/09/20 01:43:08;;;;;;;2.53;1.57;;;;;;;;;;5071832;28;20458;-73
2022/09/20 01:45:35;;;;;;;4.40;1.60;;;;;;;;;;5071235;28;20952;-73
2022/09/20 01:48:09;;;;;;;2.00;0.97;;;;;;;;;;5070696;28;20449;-73
2022/09/20 01:50:44;;;;;;;2.27;1.43;;;;;;;;;;5061689;28;21378;-73
2022/09/20 01:53:22;;;;;;;1.47;1.37;;;;;;;;;;5070955;28;20465;-72
2022/09/20 01:56:04;;;;;;;2.70;2.00;;;;;;;;;;5064697;28;20458;-73
2022/09/20 01:58:46;;;;;;;6.73;1.80;;;;;;;;;;5067559;28;20457;-73
2022/09/20 02:01:29;;;;;;;2.43;1.73;;;;;;;;;;5066644;28;20446;-72
2022/09/20 02:04:14;;;;;;;4.03;2.57;;;;;;;;;;5058817;28;20467;-72
2022/09/20 02:06:58;;;;;;;2.47;1.60;;;;;;;;;;5071548;28;20450;-74
2022/09/20 02:09:42;;;;;;;1.73;1.50;;;;;;;;;;5069977;28;20494;-72
2022/09/20 02:12:27;;;;;;;1.67;1.00;;;;;;;;;;5069944;28;20438;-73
2022/09/20 02:14:59;;;;;;;2.30;1.30;;;;;;;;;;5061221;28;20934;-74
2022/09/20 02:17:28;;;;;;;2.57;1.00;;;;;;;;;;5070620;28;20446;-73
2022/09/20 02:20:01;;;;;;;1.63;1.13;;;;;;;;;;5071262;28;20460;-73
2022/09/20 02:23:02;;;;;;;1.63;1.17;;;;;;;;;;5057643;28;20449;-73
2022/09/20 02:25:39;;;;;;;3.93;1.60;;;;;;;;;;5018033;28;20445;-73
2022/09/20 02:28:14;;;;;;;2.70;1.17;;;;;;;;;;5009860;28;20555;-74
2022/09/20 02:30:48;;;;;;;1.97;1.40;;;;;;;;;;5045679;28;20458;-73
2022/09/20 02:33:25;;;;;;;2.03;1.43;;;;;;;;;;5070733;28;20479;-72
2022/09/20 02:36:03;;;;;;;2.07;1.23;;;;;;;;;;5070585;28;20449;-72
2022/09/20 02:38:37;;;;;;;1.20;0.87;;;;;;;;;;5069219;28;20448;-73
2022/09/20 02:41:22;;;;;;;1.20;0.80;;;;;;;;;;5071003;28;20481;-73
2022/09/20 02:43:54;;;;;;;3.80;1.20;;;;;;;;;;5070387;28;20450;-73
2022/09/20 02:46:24;;;;;;;1.67;1.50;;;;;;;;;;5069522;28;20950;-72
2022/09/20 02:48:55;;;;;;;2.53;1.30;;;;;;;;;;5070601;28;20450;-73
2022/09/20 02:51:26;;;;;;;3.50;1.30;;;;;;;;;;5069468;28;20442;-72
2022/09/20 02:53:58;;;;;;;5.43;1.40;;;;;;;;;;5067316;28;20973;-73
2022/09/20 02:56:28;;;;;;;2.57;1.73;;;;;;;;;;5070346;28;20461;-73
2022/09/20 02:58:59;;;;;;;4.50;1.40;;;;;;;;;;5070517;28;20435;-73
2022/09/20 03:01:34;;;;;;;1.30;0.90;;;;;;;;;;5070147;28;20914;-73
2022/09/20 03:04:10;;;;;;;3.67;1.97;;;;;;;;;;5070264;28;20445;-73
2022/09/20 03:06:43;;;;;;;1.23;1.13;;;;;;;;;;5070156;28;20461;-73
2022/09/20 03:09:16;;;;;;;1.80;1.20;;;;;;;;;;5071818;28;20442;-73
2022/09/20 03:11:46;;;;;;;1.93;1.40;;;;;;;;;;5075000;28;20943;-73
2022/09/20 03:14:17;;;;;;;1.50;1.23;;;;;;;;;;5074883;28;20473;-73
2022/09/20 03:16:51;;;;;;;3.33;0.90;;;;;;;;;;5074807;28;20431;-73
2022/09/20 03:19:24;;;;;;;1.40;1.07;;;;;;;;;;5060650;28;20948;-72
2022/09/20 03:21:59;;;;;;;1.47;1.30;;;;;;;;;;5074462;28;20943;-73
2022/09/20 03:24:29;;;;;;;2.17;1.20;;;;;;;;;;5073421;28;20936;-72
2022/09/20 03:26:58;;;;;;;1.80;1.30;;;;;;;;;;5072847;28;20504;-82
2022/09/20 03:29:35;;;;;;;3.33;1.53;;;;;;;;;;5073136;28;20441;-72
2022/09/20 03:32:09;;;;;;;1.67;1.20;;;;;;;;;;5074598;28;20855;-74
2022/09/20 03:34:44;;;;;;;2.10;1.50;;;;;;;;;;5073555;28;20465;-74
2022/09/20 03:37:20;;;;;;;3.73;1.73;;;;;;;;;;5067002;28;20447;-73
2022/09/20 03:40:00;;;;;;;1.90;1.20;;;;;;;;;;5074096;28;20812;-73
2022/09/20 03:42:29;;;;;;;1.60;1.20;;;;;;;;;;5073704;28;20528;-72
2022/09/20 03:45:13;;;;;;;2.37;1.47;;;;;;;;;;5073635;28;20443;-74
2022/09/20 03:47:56;;;;;;;3.20;1.30;;;;;;;;;;5072625;28;20446;-76
2022/09/20 03:50:41;;;;;;;1.43;1.00;;;;;;;;;;5061204;28;20445;-76
2022/09/20 03:53:26;;;;;;;2.37;1.40;;;;;;;;;;5073823;28;20833;-77
2022/09/20 03:56:05;;;;;;;2.37;1.47;;;;;;;;;;5073326;28;20456;-72
2022/09/20 03:58:44;;;;;;;1.43;0.93;;;;;;;;;;5070873;28;20491;-72
2022/09/20 04:01:20;;;;;;;3.53;1.60;;;;;;;;;;5069025;28;20435;-72
2022/09/20 04:03:52;;;;;;;3.00;1.30;;;;;;;;;;5067225;28;20774;-72
2022/09/20 04:06:39;;;;;;;4.60;1.70;;;;;;;;;;5073205;28;20441;-76
2022/09/20 04:09:26;;;;;;;1.73;1.27;;;;;;;;;;5073501;28;20453;-77
2022/09/20 04:11:58;;;;;;;1.50;1.10;;;;;;;;;;5073991;28;20817;-76
2022/09/20 04:14:30;;;;;;;1.70;1.30;;;;;;;;;;5063449;28;20471;-76
2022/09/20 04:17:01;;;;;;;1.83;1.20;;;;;;;;;;5072311;28;20448;-76
2022/09/20 04:19:32;;;;;;;2.33;1.20;;;;;;;;;;5073083;28;20782;-75
2022/09/20 04:22:00;;;;;;;3.57;1.40;;;;;;;;;;5073798;28;20451;-75
2022/09/20 04:24:36;;;;;;;1.43;1.23;;;;;;;;;;5073035;28;20465;-75
2022/09/20 04:27:05;;;;;;;1.87;1.00;;;;;;;;;;5073268;28;20483;-75
2022/09/20 04:29:37;;;;;;;2.70;1.43;;;;;;;;;;5072996;28;20519;-75
2022/09/20 04:32:10;;;;;;;1.47;1.30;;;;;;;;;;5073424;28;20431;-75
2022/09/20 04:37:38;;;;;;;3.43;1.47;;;;;;;;;;5030084;28;21228;-75
2022/09/20 04:40:23;;;;;;;1.90;1.30;;;;;;;;;;5063395;28;20542;-75
2022/09/20 04:43:08;;;;;;;5.20;1.53;;;;;;;;;;5072837;28;20447;-75
2022/09/20 04:45:59;;;;;;;3.90;1.23;;;;;;;;;;5072336;28;20449;-75
2022/09/20 04:48:48;;;;;;;2.43;1.10;;;;;;;;;;5072312;28;20448;-75
2022/09/20 04:51:30;;;;;;;2.13;1.20;;;;;;;;;;5073151;28;20439;-75
2022/09/20 04:54:15;;;;;;;1.20;1.10;;;;;;;;;;5070868;28;20518;-75
2022/09/20 04:56:51;;;;;;;1.77;1.63;;;;;;;;;;5072608;28;20544;-75
2022/09/20 04:59:23;;;;;;;2.53;1.77;;;;;;;;;;5072633;28;20459;-74
2022/09/20 05:02:06;;;;;;;2.73;1.87;;;;;;;;;;5072895;28;20816;-75
2022/09/20 05:04:42;;;;;;;2.07;1.77;;;;;;;;;;5070848;28;20542;-75
2022/09/20 05:07:22;;;;;;;4.30;1.60;;;;;;;;;;5072134;28;20946;-75
2022/09/20 05:09:59;;;;;;;2.13;1.67;;;;;;;;;;5072746;28;20450;-75
2022/09/20 05:12:47;;;;;;;2.73;1.60;;;;;;;;;;5071993;28;20529;-75
2022/09/20 05:15:24;;;;;;;2.47;1.50;;;;;;;;;;5072777;28;20479;-74
2022/09/20 05:17:59;;;;;;;5.70;1.87;;;;;;;;;;5072242;28;20446;-76
2022/09/20 05:20:47;;;;;;;2.80;1.90;;;;;;;;;;5072044;28;20443;-75
2022/09/20 05:23:35;;;;;;;5.10;2.30;;;;;;;;;;5067836;28;20464;-76
2022/09/20 05:26:13;;;;;;;2.43;1.60;;;;;;;;;;5060827;28;20456;-75
2022/09/20 05:28:49;;;;;;;3.00;2.30;;;;;;;;;;5071887;28;20439;-75
2022/09/20 05:31:20;;;;;;;1.73;1.50;;;;;;;;;;5071769;28;20443;-71
2022/09/20 05:33:51;;;;;;;1.67;1.13;;;;;;;;;;5072029;28;20471;-74
2022/09/20 05:36:24;;;;;;;3.83;1.77;;;;;;;;;;5071559;28;20471;-75
2022/09/20 05:38:55;;;;;;;2.30;1.90;;;;;;;;;;5072075;28;20447;-75
2022/09/20 05:41:30;;;;;;;1.70;1.50;;;;;;;;;;5071467;28;20454;-74
2022/09/20 05:44:05;;;;;;;3.80;2.10;;;;;;;;;;5072053;28;20475;-75
2022/09/20 05:46:40;;;;;;;2.77;2.30;;;;;;;;;;5071021;28;20442;-75
2022/09/20 05:49:12;;;;;;;3.43;1.70;;;;;;;;;;5072121;28;20450;-75
2022/09/20 05:51:47;;;;;;;2.40;2.07;;;;;;;;;;5071107;28;20442;-74
2022/09/20 05:54:24;;;;;;;4.30;2.00;;;;;;;;;;5072136;28;20480;-74
2022/09/20 05:56:55;;;;;;;2.83;1.77;;;;;;;;;;5071160;28;20452;-75
2022/09/20 05:59:28;;;;;;;4.93;1.90;;;;;;;;;;5071306;28;20820;-74
2022/09/20 06:02:03;;;;;;;2.60;1.87;;;;;;;;;;5071672;28;20928;-74
2022/09/20 06:04:35;;;;;;;2.50;1.87;;;;;;;;;;5070810;28;20446;-74
2022/09/20 06:07:07;;;;;;;2.80;1.47;;;;;;;;;;5071544;28;20455;-75
2022/09/20 06:09:51;;;;;;;2.70;1.80;;;;;;;;;;5071388;28;20443;-74
2022/09/20 06:12:30;;;;;;;6.33;1.83;;;;;;;;;;5071602;28;20453;-74
2022/09/20 06:15:04;;;;;;;2.53;1.77;;;;;;;;;;5074156;28;20527;-75
2022/09/20 06:17:34;;;;;;;5.00;2.33;;;;;;;;;;5074005;28;20531;-76
2022/09/20 06:20:09;;;;;;;7.13;2.23;;;;;;;;;;5072784;28;20451;-75
2022/09/20 06:22:39;;;;;;;5.73;1.93;;;;;;;;;;5071072;28;20724;-75
2022/09/20 06:25:14;;;;;;;3.53;1.90;;;;;;;;;;5071215;28;20475;-75
2022/09/20 06:27:44;;;;;;;1.67;1.53;;;;;;;;;;5071057;28;21036;-75
2022/09/20 06:30:16;;;;;;;3.57;1.70;;;;;;;;;;5071791;28;20474;-75
2022/09/20 06:32:53;;;;;;;10.53;2.03;;;;;;;;;;5071521;28;20448;-74
2022/09/20 06:35:21;;;;;;;4.60;1.70;;;;;;;;;;5070699;28;20479;-75
2022/09/20 06:43:24;;;;;;;7.57;2.27;;;;;;;;;;5069517;28;20427;-74
2022/09/20 06:45:52;;;;;;;2.30;2.00;;;;;;;;;;5071334;28;20442;-75
2022/09/20 06:48:19;;;;;;;4.87;1.80;;;;;;;;;;5069817;28;20446;-75
2022/09/20 06:50:47;;;;;;;2.10;1.73;;;;;;;;;;5071241;28;20458;-74
2022/09/20 06:53:16;;;;;;;6.13;2.17;;;;;;;;;;5071049;28;20452;-75
2022/09/20 06:55:44;;;;;;;3.70;1.73;;;;;;;;;;5070880;28;20550;-75
2022/09/20 06:58:11;;;;;;;3.23;1.90;;;;;;;;;;5057798;28;20457;-75
2022/09/20 07:00:39;;;;;;;2.83;1.33;;;;;;;;;;5070073;28;20452;-75
2022/09/20 07:03:08;;;;;;;5.13;1.70;;;;;;;;;;5070922;28;20458;-75
2022/09/20 07:05:36;;;;;;;6.83;1.70;;;;;;;;;;5070416;28;20804;-76
2022/09/20 07:08:03;;;;;;;3.23;2.27;;;8.70;99.90;;;;;;5070197;28;20453;-75
2022/09/20 07:10:29;;;;;;;4.83;1.80;;;10.80;99.90;;;;;;5070168;28;20453;-75
2022/09/20 07:12:58;;;;;;;3.27;2.17;;;10.80;99.90;;;;;;5070621;28;20457;-75
2022/09/20 07:15:25;;;;;;;5.10;1.53;;;10.80;99.90;;;;;;5069993;28;20481;-74
2022/09/20 07:17:52;;;;;;;3.20;2.00;;;10.90;99.90;;;;;;5070490;28;20452;-74
2022/09/20 07:20:20;;;;;;;3.20;1.53;;;11.00;99.90;;;;;;5070351;28;20465;-75
2022/09/20 07:22:47;;;;;;;4.03;2.27;;;11.00;99.90;;;;;;5070775;28;20446;-74
2022/09/20 07:25:14;;;;;;;1.87;1.53;;;11.00;99.90;;;;;;5070643;28;20462;-75
2022/09/20 07:27:41;;;;;;;6.80;1.63;;;11.00;99.90;;;;;;5069672;28;20484;-75
2022/09/20 07:30:09;;;;;;;3.67;1.43;;;11.10;99.90;;;;;;5070552;28;20442;-82
2022/09/20 07:32:36;;;;;;;3.20;2.27;;;11.10;99.90;;;;;;5070044;28;20463;-75
2022/09/20 07:35:03;;;;;;;4.47;2.63;;;11.10;99.90;;;;;;5070132;28;20563;-74
2022/09/20 07:37:31;;;;;;;7.10;2.93;;;11.20;99.90;;;;;;5069817;28;20496;-77
2022/09/20 07:39:58;;;;;;;4.13;2.20;;;11.20;99.90;;;;;;5070615;28;20454;-76
2022/09/20 07:42:25;;;;;;;4.50;1.77;;;11.40;99.90;;;;;;5070192;28;20445;-76
2022/09/20 07:44:54;;;;;;;2.63;2.10;;;11.40;99.90;;;;;;5070135;28;20450;-76
2022/09/20 07:47:24;;;;;;;3.00;1.40;;;;;;;;;;5069571;28;20929;-77
2022/09/20 07:49:51;;;;;;;2.03;1.80;;;;;;;;;;5070367;28;20459;-77
2022/09/20 07:52:19;;;;;;;6.40;1.80;;;;;;;;;;5070409;28;20446;-76
2022/09/20 07:54:48;;;;;;;11.90;1.97;;;;;;;;;;5071382;28;20481;-76
2022/09/20 07:57:16;;;;;;;3.53;1.67;;;;;;;;;;5074055;28;20465;-77
2022/09/20 07:59:43;;;;;;;2.40;1.63;;;;;;;;;;5074499;28;20464;-77
2022/09/20 08:02:14;;;;;;;2.13;1.50;;;;;;;;;;5074439;28;20454;-77
2022/09/20 08:04:41;;;;;;;8.97;4.03;;;;;;;;;;5061156;28;20449;-74
2022/09/20 08:07:08;;;;;;;3.00;1.83;;;;;;;;;;5073593;28;20453;-76
2022/09/20 08:09:35;;;;;;;3.30;1.30;;;;;;;;;;5073622;28;20449;-77
2022/09/20 08:12:04;;;;;;;3.63;1.10;;;;;;;;;;5073396;28;20450;-76
2022/09/20 08:14:31;;;;;;;4.27;1.97;;;;;;;;;;5073431;28;20485;-77
2022/09/20 08:16:58;;;;;;;2.47;1.20;;;;;;;;;;5073701;28;20453;-77
2022/09/20 08:19:26;;;;;;;7.70;1.50;;;;;;;;;;5073010;28;20960;-77
2022/09/20 08:21:53;;;;;;;3.10;1.00;;;;;;;;;;5073580;28;20450;-76
2022/09/20 08:24:21;;;;;;;1.20;1.10;;;;;;;;;;5073586;28;20456;-76
2022/09/20 08:26:48;;;;;;;1.40;1.00;;;;;;;;;;5072787;28;20484;-76
2022/09/20 08:29:17;;;;;;;4.40;1.43;;;;;;;;;;5074028;28;20457;-78
2022/09/20 08:31:45;;;;;;;4.03;0.90;;;;;;;;;;5073866;28;20446;-77
2022/09/20 08:34:13;;;;;;;2.20;1.40;;;;;;;;;;5073346;28;21043;-77
2022/09/20 08:36:41;;;;;;;4.40;0.90;;;;;;;;;;5072534;28;20453;-77
2022/09/20 08:39:09;;;;;;;1.97;1.30;;;;;;;;;;5073345;28;20952;-77
2022/09/20 08:41:38;;;;;;;1.50;1.30;;;;;;;;;;5072852;28;20453;-77
2022/09/20 08:44:07;;;;;;;5.13;0.93;;;;;;;;;;5073744;28;20446;-77
2022/09/20 08:46:39;;;;;;;3.20;1.10;;;;;;;;;;5072227;28;20446;-77
2022/09/20 08:49:07;;;;;;;2.90;1.53;;;;;;;;;;5073618;28;20450;-76
2022/09/20 08:51:36;;;;;;;3.23;1.10;;;;;;;;;;5072614;28;20452;-77
2022/09/20 08:54:03;;;;;;;5.97;2.40;;;;;;;;;;5073283;28;20451;-76
2022/09/20 08:56:32;;;;;;;3.20;1.23;;;;;;;;;;5059092;28;20792;-77
2022/09/20 08:59:00;;;;;;;2.10;1.20;;;;;;;;;;5073286;28;20486;-76
2022/09/20 09:01:28;;;;;;;1.10;0.80;;;;;;;;;;5072279;28;20449;-77
2022/09/20 09:03:59;;;;;;;1.90;1.20;;;;;;;;;;5073205;28;20453;-77
2022/09/20 09:06:26;;;;;;;2.73;0.93;;;;;;;;;;5071423;28;20471;-77
2022/09/20 09:08:54;;;;;;;3.30;1.40;;;;;;;;;;5073302;28;20445;-76
2022/09/20 09:11:22;;;;;;;2.43;1.10;;;;;;;;;;5072123;28;20450;-77
2022/09/20 09:13:51;;;;;;;1.63;0.93;;;;;;;;;;5072630;28;20441;-77
2022/09/20 09:16:19;;;;;;;1.73;1.20;;;;;;;;;;5071863;28;21053;-77
2022/09/20 09:18:48;;;;;;;4.63;1.10;;;;;;;;;;5072929;28;20800;-75
2022/09/20 09:21:20;;;;;;;2.53;1.17;;;;;;;;;;5072879;28;20457;-77
2022/09/20 09:23:50;;;;;;;1.47;1.00;;;;;;;;;;5072979;28;20441;-76
2022/09/20 09:26:19;;;;;;;1.37;1.07;;;;;;;;;;5071462;28;20922;-76
2022/09/20 09:28:47;;;;;;;1.13;0.70;;;;;;;;;;5072549;28;20450;-75
2022/09/20 09:31:21;;;;;;;4.63;2.33;;;;;;;;;;5072846;28;20453;-77
2022/09/20 09:33:48;;;;;;;4.30;1.67;;;;;;;;;;5072725;28;20797;-76
2022/09/20 09:36:16;;;;;;;2.87;1.70;;;;;;;;;;5072167;28;20496;-77
2022/09/20 09:38:46;;;;;;;4.03;1.47;;;;;;;;;;5072394;28;20477;-77
2022/09/20 09:41:23;;;;;;;4.90;1.20;;;;;;;;;;5072055;28;20457;-77
2022/09/20 09:43:58;;;;;;;1.53;1.27;;;;;;;;;;5072476;28;20476;-77
2022/09/20 09:46:27;;;;;;;5.33;1.13;;;;;;;;;;5071374;28;20781;-77
2022/09/20 09:49:06;;;;;;;1.23;1.07;;;;;;;;;;5072333;28;20453;-77
2022/09/20 09:51:33;;;;;;;2.27;1.03;;;;;;;;;;5071794;28;20499;-77
2022/09/20 09:54:02;;;;;;;3.23;1.23;;;;;;;;;;5072314;28;20808;-77
2022/09/20 09:56:48;;;;;;;3.80;1.30;;;;;;;;;;5071067;28;20853;-77
2022/09/20 09:59:23;;;;;;;1.47;0.90;;;;;;;;;;5072260;28;20452;-78
2022/09/20 10:01:55;;;;;;;1.60;0.83;;;;;;;;;;5072135;28;20442;-77
2022/09/20 10:04:25;;;;;;;10.93;1.33;;;;;;;;;;5071481;28;20843;-77
2022/09/20 10:06:54;;;;;;;1.53;1.07;;;;;;;;;;5072074;28;20454;-77
2022/09/20 10:09:29;;;;;;;2.03;1.30;;;;;;;;;;5071187;28;20461;-77
2022/09/20 10:12:08;;;;;;;3.73;1.37;;;;;;;;;;5071781;28;20444;-75
2022/09/20 10:14:47;;;;;;;4.00;1.37;;;;;;;;;;5071303;28;20809;-77
2022/09/20 10:17:25;;;;;;;3.70;1.10;;;;;;;;;;5071711;28;20437;-77
2022/09/20 10:20:00;;;;;;;2.00;0.80;;;;;;;;;;5074938;28;20444;-78
2022/09/20 10:22:34;;;;;;;7.57;1.03;;;;;;;;;;5078670;28;20433;-77
2022/09/20 10:25:05;;;;;;;3.53;0.90;;;;;;;;;;5081463;28;20445;-78
2022/09/20 10:27:40;;;;;;;2.90;1.57;;;;;;;;;;5071719;28;20488;-77
2022/09/20 10:30:10;;;;;;;1.73;1.17;;;;;;;;;;5072023;28;20450;-78
2022/09/20 10:32:44;;;;;;;1.90;1.20;;;;;;;;;;5071008;28;20446;-77
2022/09/20 10:35:20;;;;;;;1.60;1.10;;;;;;;;;;5071586;28;20496;-77
2022/09/20 10:38:02;;;;;;;1.00;0.90;;;;;;;;;;5071403;28;20453;-76
2022/09/20 10:43:19;;;;;;;1.57;1.17;;;;;;;;;;5071266;28;20436;-77
2022/09/20 10:45:49;;;;;;;3.87;1.10;;;;;;;;;;5071270;28;20441;-78
2022/09/20 10:48:22;;;;;;;6.40;1.40;;;;;;;;;;5070938;28;20450;-70
2022/09/20 10:50:53;;;;;;;0.97;0.87;;;;;;;;;;5071600;28;20441;-77
2022/09/20 10:53:26;;;;;;;3.07;1.30;;;;;;;;;;5070993;28;20441;-77
2022/09/20 10:56:01;;;;;;;1.60;0.93;;;;;;;;;;5070656;28;20850;-77
2022/09/20 10:58:36;;;;;;;4.60;1.93;;;;;;;;;;5070699;28;20442;-77
2022/09/20 11:01:07;;;;;;;1.83;0.77;;;;;;;;;;5071311;28;20445;-77
2022/09/20 11:03:41;;;;;;;2.37;1.20;;;;;;;;;;5070880;28;20816;-78
2022/09/20 11:06:14;;;;;;;2.67;0.93;;;;;;;;;;5070889;28;20453;-77
2022/09/20 11:08:42;;;;;;;1.17;0.80;;;;;;;;;;5071230;28;20456;-78
2022/09/20 11:11:13;;;;;;;2.20;0.90;;;;;;;;;;5070742;28;20536;-78
2022/09/20 11:13:47;;;;;;;4.33;1.27;;;11.40;99.90;;;;;;5070577;28;20449;-77
2022/09/20 11:16:18;;;;;;;2.17;1.33;;;14.30;99.90;;;;;;5070950;28;20477;-78
2022/09/20 11:18:51;;;;;;;2.50;1.27;;;14.30;99.90;;;;;;5071412;28;20445;-78
2022/09/20 11:21:21;;;;;;;8.60;1.40;;;14.50;99.90;;;;;;5070543;28;20442;-78
2022/09/20 11:23:54;;;;;;;5.90;1.20;;;14.70;99.90;;;;;;5070914;28;20804;-77
2022/09/20 11:26:31;;;;;;;0.83;0.70;;;14.90;99.90;;;;;;5069732;28;20461;-77
2022/09/20 11:29:02;;;;;;;4.00;1.10;;;;;;;;;;5070804;28;20446;-78
2022/09/20 11:31:33;;;;;;;1.33;1.00;;;15.40;99.90;;;;;;5073629;28;20913;-78
2022/09/20 11:34:08;;;;;;;2.73;1.10;;;16.00;99.90;;;;;;5075006;28;20462;-78
2022/09/20 11:36:42;;;;;;;1.70;0.93;;;15.90;99.90;;;;;;5073700;28;20479;-78
2022/09/20 11:39:15;;;;;;;1.77;0.90;;;16.00;99.90;;;;;;5074835;28;20445;-79
2022/09/20 11:41:44;;;;;;;2.53;1.23;;;16.40;99.90;;;;;;5074765;28;20449;-78
2022/09/20 11:44:15;;;;;;;1.57;0.97;;;16.10;99.90;;;;;;5075265;28;20454;-77
2022/09/20 11:46:47;;;;;;;3.03;1.10;;;15.50;99.90;;;;;;5074499;28;20481;-78
2022/09/20 11:49:16;;;;;;;2.60;1.27;;;15.60;99.90;;;;;;5074924;28;20441;-75
2022/09/20 11:52:21;;;;;;;2.50;0.83;;;15.80;99.90;;;;;;5074798;28;20455;-77
2022/09/20 11:55:10;;;;;;;0.80;0.70;;;15.60;99.90;;;;;;5074091;28;20429;-78
2022/09/20 11:57:39;;;;;;;2.13;1.23;;;15.60;99.90;;;;;;5073503;28;20458;-77
2022/09/20 12:00:08;;;;;;;3.10;1.20;;;15.60;99.90;;;;;;5074406;28;20785;-78
2022/09/20 12:02:41;;;;;;;1.77;0.97;;;15.60;99.90;;;;;;5073955;28;20850;-78
2022/09/20 12:05:26;;;;;;;1.20;0.70;;;15.80;99.90;;;;;;5074408;28;20465;-78
2022/09/20 12:07:55;;;;;;;3.30;1.10;;;15.50;99.90;;;;;;5074009;28;20445;-76
2022/09/20 12:10:25;;;;;;;5.40;1.00;;;15.30;99.90;;;;;;5073715;28;20448;-78
2022/09/20 12:12:58;;;;;;;1.37;0.80;;;15.50;99.90;;;;;;5074660;28;20453;-78
2022/09/20 12:15:27;;;;;;;3.60;1.80;;;15.70;99.90;;;;;;5073512;28;20477;-77
2022/09/20 12:18:27;;;;;;;3.13;1.23;;;15.60;99.90;;;;;;5074482;28;20780;-78
2022/09/20 12:21:15;;;;;;;6.07;1.10;;;15.80;99.90;;;;;;5061006;28;20450;-77
2022/09/20 12:24:02;;;;;;;1.43;0.90;;;15.90;99.90;;;;;;5074212;28;20434;-77
2022/09/20 12:26:37;;;;;;;7.63;1.10;;;16.10;94.50;;;;;;5072700;28;20459;-78
2022/09/20 12:29:53;;;;;;;3.43;1.10;;;16.30;86.20;;;;;;5074145;28;20452;-78
2022/09/20 12:33:04;;;;;;;1.33;0.80;;;16.10;84.70;;;;;;5073586;28;20449;-77
2022/09/20 12:36:25;;;;;;;2.00;0.90;;;16.10;67.80;;;;;;5057109;28;20480;-77
2022/09/20 12:39:00;;;;;;;1.03;0.67;;;16.20;68.10;;;;;;5073814;28;20437;-77
2022/09/20 12:41:28;;;;;;;2.60;1.10;;;16.40;65.60;;;;;;5071594;28;20481;-77
2022/09/20 12:43:59;;;;;;;2.13;1.17;;;16.40;65.90;;;;;;5073637;28;20765;-77
2022/09/20 12:46:33;;;;;;;1.80;1.13;;;16.50;66.20;;;;;;5072580;28;20448;-77
2022/09/20 12:52:52;;;;;;;4.47;0.90;;;16.40;75.50;;;;;;5073444;28;20453;-77
2022/09/20 12:55:32;;;;;;;3.17;1.07;;;16.80;80.00;;;;;;5062411;28;20449;-78
2022/09/20 12:58:03;;;;;;;3.43;0.87;;;16.80;83.80;;;;;;5073361;28;20442;-78
2022/09/20 13:00:37;;;;;;;1.13;0.90;;;17.00;79.30;;;;;;5072841;28;20448;-78
2022/09/20 13:03:27;;;;;;;1.73;1.00;;;16.80;81.00;;;;;;5060105;28;20457;-78
2022/09/20 13:06:23;;;;;;;2.33;0.90;;;16.80;76.70;;;;;;5072551;28;20496;-78
2022/09/20 13:08:53;;;;;;;1.13;0.80;;;17.00;69.80;;;;;;5073126;28;20452;-79
2022/09/20 13:11:23;;;;;;;1.93;1.20;;;17.10;59.50;;;;;;5072540;28;20446;-78
2022/09/20 13:13:56;;;;;;;2.83;0.80;;;17.00;60.90;;;;;;5073051;28;20458;-79
2022/09/20 13:16:26;;;;;;;2.20;0.90;;;16.90;56.70;;;;;;5072116;28;20499;-76
2022/09/20 13:19:00;;;;;;;3.73;0.90;;;16.40;51.40;;;;;;5073114;28;20459;-77
2022/09/20 13:21:28;;;;;;;1.73;1.30;;;16.60;56.60;;;;;;5072444;28;20449;-78
2022/09/20 13:23:56;;;;;;;1.50;0.87;;;17.10;55.10;;;;;;5072843;28;20453;-78
2022/09/20 13:26:29;;;;;;;4.10;0.80;;;17.20;50.30;;;;;;5071602;28;20469;-78
2022/09/20 13:28:58;;;;;;;1.83;0.90;;;17.40;49.90;;;;;;5072752;28;20449;-78
2022/09/20 13:31:31;;;;;;;1.23;0.87;;;17.10;49.10;;;;;;5072162;28;20442;-78
2022/09/20 13:34:19;;;;;;;2.03;1.10;;;17.10;52.90;;;;;;5072775;28;20985;-78
2022/09/20 13:36:47;;;;;;;2.30;1.57;;;16.80;52.80;;;;;;5072389;28;20584;-79
2022/09/20 13:39:34;;;;;;;2.20;1.17;;;16.90;70.50;;;;;;5072864;28;20461;-78
2022/09/20 13:42:02;;;;;;;1.30;1.07;;;;;;;;;;5072265;28;20441;-78
2022/09/20 13:44:32;;;;;;;3.30;1.40;;;;;;;;;;5072036;28;20501;-78
2022/09/20 13:46:59;;;;;;;2.13;1.00;;;;;;;;;;5071935;28;20449;-78
2022/09/20 13:49:32;;;;;;;1.73;1.13;;;;;;;;;;5071896;28;20450;-78
2022/09/20 13:51:59;;;;;;;0.63;0.63;;;;;;;;;;5072389;28;20444;-78
2022/09/20 13:54:28;;;;;;;1.43;1.00;;;;;;;;;;5071449;28;20450;-78
2022/09/20 13:56:57;;;;;;;1.10;0.93;;;;;;;;;;5071749;28;20489;-78
2022/09/20 13:59:24;;;;;;;1.77;1.10;;;16.60;60.30;;;;;;5071593;28;20442;-77
2022/09/20 14:01:54;;;;;;;2.03;1.20;;;16.20;67.90;;;;;;5072249;28;20441;-77
2022/09/20 14:04:23;;;;;;;1.40;1.00;;;15.60;77.90;;;;;;5071785;28;20468;-77
2022/09/20 14:06:54;;;;;;;2.80;1.30;;;15.60;86.40;;;;;;5071819;28;20453;-78
2022/09/20 14:09:27;;;;;;;1.90;1.07;;;15.40;91.50;;;;;;5071568;28;20456;-78
2022/09/20 14:11:56;;;;;;;2.77;1.00;;;15.20;95.30;;;;;;5071895;28;20438;-76
2022/09/20 14:14:24;;;;;;;4.47;1.40;;;15.20;99.90;;;;;;5071500;28;20433;-78
2022/09/20 14:16:54;;;;;;;5.63;1.20;;;15.20;99.90;;;;;;5071664;28;20508;-78
2022/09/20 14:19:25;;;;;;;1.37;1.07;;;15.10;99.90;;;;;;5074113;28;20441;-79
2022/09/20 14:21:53;;;;;;;7.53;1.20;;;15.10;99.90;;;;;;5079001;28;20442;-77
2022/09/20 14:24:30;;;;;;;1.43;0.97;;;15.00;99.90;;;;;;5077226;28;20948;-77
2022/09/20 14:27:13;;;;;;;1.30;1.10;;;14.60;99.90;;;;;;5085588;28;20487;-78
2022/09/20 14:29:42;;;;;;;1.27;0.70;;;14.60;99.90;;;;;;5089862;28;20509;-77
2022/09/20 14:32:26;;;;;;;2.30;1.10;;;14.60;99.90;;;;;;5086226;28;20460;-78
2022/09/20 14:34:59;;;;;;;1.67;0.70;;;;;;;;;;5071945;28;20442;-77
2022/09/20 14:37:29;;;;;;;2.40;1.03;;;;;;;;;;5071072;28;20474;-77
2022/09/20 14:39:57;;;;;;;4.33;1.17;;;;;;;;;;5071797;28;20449;-77
2022/09/20 14:42:29;;;;;;;3.27;0.90;;;;;;;;;;5070974;28;20529;-77
2022/09/20 14:44:56;;;;;;;1.43;0.80;;;;;;;;;;5071612;28;20460;-77
2022/09/20 14:47:27;;;;;;;2.10;0.90;;;;;;;;;;5070587;28;20473;-77
2022/09/20 14:49:55;;;;;;;1.13;0.90;;;;;;;;;;5071373;28;20503;-77
2022/09/20 14:52:36;;;;;;;0.80;0.70;;;;;;;;;;5070869;28;20445;-79
2022/09/20 14:55:11;;;;;;;2.47;1.13;;;;;;;;;;5059630;28;20468;-78
2022/09/20 14:57:39;;;;;;;4.63;1.47;;;;;;;;;;5070110;28;20531;-77
2022/09/20 15:00:08;;;;;;;1.17;1.03;;;;;;;;;;5071086;28;20511;-77